Time;durP1;ratioP1;P1;durP2;ratioP2;P2;SDS_P1;SDS_P2;PMS_P1;PMS_P2;Temp;Humidity;BMP_temperature;BMP_pressure;BME280_temperature;BME280_humidity;BME280_pressure;Samples;Min_cycle;Max_cycle;Signal;HPM_P1;HPM_P2
2021/06/08 00:01:05;;;;;;;8.50;6.05;;;18.70;57.40;;;;;;4959710;28;20027;-80
2021/06/08 00:03:32;;;;;;;11.27;7.45;;;18.70;57.20;;;;;;4959383;28;20065;-79
2021/06/08 00:05:58;;;;;;;9.93;6.60;;;18.60;58.30;;;;;;4959749;28;20074;-79
2021/06/08 00:08:24;;;;;;;10.40;7.53;;;18.60;57.00;;;;;;4959385;28;20028;-80
2021/06/08 00:10:50;;;;;;;13.25;7.88;;;18.60;59.10;;;;;;4959728;29;20031;-79
2021/06/08 00:13:16;;;;;;;11.50;6.97;;;18.60;60.00;;;;;;4959559;28;20032;-80
2021/06/08 00:15:42;;;;;;;12.35;8.18;;;18.50;59.30;;;;;;4959347;28;20027;-80
2021/06/08 00:18:08;;;;;;;9.00;5.95;;;18.50;58.40;;;;;;4959529;28;20061;-80
2021/06/08 00:20:34;;;;;;;11.82;7.20;;;18.50;58.20;;;;;;4958797;29;20042;-80
2021/06/08 00:23:00;;;;;;;10.38;7.57;;;18.40;57.50;;;;;;4959095;29;20031;-80
2021/06/08 00:25:25;;;;;;;11.32;6.95;;;18.40;59.20;;;;;;4959206;28;20035;-79
2021/06/08 00:27:52;;;;;;;13.32;7.07;;;18.30;58.60;;;;;;4958772;28;20054;-80
2021/06/08 00:30:19;;;;;;;10.80;6.90;;;18.30;58.10;;;;;;4946644;29;20058;-79
2021/06/08 00:32:45;;;;;;;14.52;8.57;;;18.30;58.50;;;;;;4959410;28;20019;-80
2021/06/08 00:35:11;;;;;;;13.77;8.25;;;18.20;61.10;;;;;;4958596;28;20043;-79
2021/06/08 00:37:37;;;;;;;12.77;7.05;;;18.20;59.90;;;;;;4957333;29;20034;-80
2021/06/08 00:40:04;;;;;;;12.25;7.10;;;18.20;60.00;;;;;;4957020;28;20051;-80
2021/06/08 00:42:33;;;;;;;11.43;7.05;;;18.10;58.30;;;;;;4958442;28;20465;-80
2021/06/08 00:44:59;;;;;;;13.38;7.15;;;18.10;59.40;;;;;;4957554;29;20126;-80
2021/06/08 00:47:25;;;;;;;11.40;7.18;;;18.10;58.50;;;;;;4958807;28;20016;-79
2021/06/08 00:49:51;;;;;;;13.85;7.25;;;18.00;59.10;;;;;;4956695;29;20138;-80
2021/06/08 00:52:17;;;;;;;13.60;8.00;;;18.00;60.20;;;;;;4956953;29;20597;-79
2021/06/08 00:54:43;;;;;;;14.50;7.88;;;18.00;59.70;;;;;;4958359;28;20055;-80
2021/06/08 00:57:09;;;;;;;13.80;7.22;;;18.00;60.60;;;;;;4957261;29;20062;-79
2021/06/08 00:59:35;;;;;;;12.75;7.53;;;17.90;60.00;;;;;;4950269;28;20035;-80
2021/06/08 01:02:01;;;;;;;11.68;7.10;;;17.90;59.10;;;;;;4954190;28;20486;-79
2021/06/08 01:04:26;;;;;;;12.80;8.27;;;17.90;59.10;;;;;;4962284;28;20027;-79
2021/06/08 01:06:52;;;;;;;9.98;6.15;;;17.90;59.30;;;;;;4961087;29;20051;-79
2021/06/08 01:09:18;;;;;;;10.18;6.55;;;17.80;57.90;;;;;;4962103;28;20450;-79
2021/06/08 01:11:44;;;;;;;10.20;6.55;;;17.90;58.10;;;;;;4961501;29;20027;-80
2021/06/08 01:14:10;;;;;;;11.18;6.05;;;17.80;56.90;;;;;;4962438;28;20030;-80
2021/06/08 01:16:36;;;;;;;10.55;5.85;;;17.80;56.60;;;;;;4961156;29;20050;-80
2021/06/08 01:19:01;;;;;;;10.68;7.25;;;17.80;56.80;;;;;;4961094;29;20478;-80
2021/06/08 01:21:29;;;;;;;12.70;7.32;;;17.70;59.60;;;;;;4957175;28;20111;-81
2021/06/08 01:23:56;;;;;;;13.60;7.85;;;17.70;59.50;;;;;;4946952;29;20019;-80
2021/06/08 01:26:27;;;;;;;13.85;6.68;;;17.70;58.70;;;;;;4962432;28;20035;-80
2021/06/08 01:28:55;;;;;;;11.90;7.57;;;17.60;57.70;;;;;;4961877;28;20027;-80
2021/06/08 01:31:24;;;;;;;11.20;6.22;;;17.60;58.20;;;;;;4962122;28;20556;-80
2021/06/08 01:33:50;;;;;;;9.40;6.85;;;17.60;57.70;;;;;;4960502;29;20027;-80
2021/06/08 01:36:18;;;;;;;12.98;8.15;;;17.60;57.30;;;;;;4956846;28;20024;-80
2021/06/08 01:38:46;;;;;;;16.73;7.95;;;17.50;59.30;;;;;;4949612;29;20131;-80
2021/06/08 01:41:13;;;;;;;14.00;8.02;;;17.50;59.50;;;;;;4957556;28;20058;-80
2021/06/08 01:43:42;;;;;;;15.93;8.70;;;17.40;60.40;;;;;;4961916;28;20114;-80
2021/06/08 01:46:09;;;;;;;13.65;7.65;;;17.40;61.00;;;;;;4961952;28;20027;-80
2021/06/08 01:48:36;;;;;;;14.25;7.95;;;17.40;59.50;;;;;;4961856;28;20082;-80
2021/06/08 01:51:31;;;;;;;12.77;8.07;;;17.30;59.60;;;;;;4962041;28;20082;-80
2021/06/08 01:54:24;;;;;;;12.27;7.82;;;17.30;58.30;;;;;;4943894;28;20046;-80
2021/06/08 01:57:05;;;;;;;14.27;8.75;;;17.40;58.80;;;;;;4960556;29;20561;-80
2021/06/08 01:59:53;;;;;;;10.43;6.88;;;17.30;58.30;;;;;;4961558;28;20101;-80
2021/06/08 02:02:56;;;;;;;12.95;8.48;;;17.30;57.60;;;;;;4960377;29;20023;-80
2021/06/08 02:05:37;;;;;;;11.65;6.95;;;17.20;58.70;;;;;;4950025;29;20087;-80
2021/06/08 02:08:22;;;;;;;10.35;7.25;;;17.20;57.80;;;;;;4961520;28;20047;-80
2021/06/08 02:11:11;;;;;;;13.15;7.07;;;17.20;57.60;;;;;;4960111;29;20027;-80
2021/06/08 02:14:14;;;;;;;11.98;6.75;;;17.20;57.20;;;;;;4951615;28;20030;-79
2021/06/08 02:16:55;;;;;;;13.25;8.05;;;17.10;57.40;;;;;;4949910;29;20486;-80
2021/06/08 02:19:24;;;;;;;13.88;8.00;;;17.10;57.10;;;;;;4961358;28;20102;-80
2021/06/08 02:21:55;;;;;;;13.73;7.53;;;17.10;59.20;;;;;;4953365;28;20055;-80
2021/06/08 02:24:25;;;;;;;12.43;7.75;;;17.10;59.70;;;;;;4948759;29;20032;-80
2021/06/08 02:26:56;;;;;;;12.57;7.15;;;17.10;59.10;;;;;;4961246;28;20030;-80
2021/06/08 02:29:23;;;;;;;13.30;7.95;;;17.00;57.90;;;;;;4961298;28;20549;-80
2021/06/08 02:31:50;;;;;;;10.27;6.97;;;17.00;57.30;;;;;;4961526;28;20386;-80
2021/06/08 02:34:17;;;;;;;11.70;8.77;;;17.00;58.80;;;;;;4960642;28;20037;-80
2021/06/08 02:36:45;;;;;;;14.88;8.27;;;16.90;57.80;;;;;;4959994;29;20031;-80
2021/06/08 02:39:12;;;;;;;12.15;8.60;;;16.90;60.50;;;;;;4951978;28;20042;-80
2021/06/08 02:41:39;;;;;;;13.98;8.70;;;16.90;59.40;;;;;;4960958;28;20415;-80
2021/06/08 02:44:06;;;;;;;14.40;8.30;;;16.90;58.40;;;;;;4960777;28;20445;-80
2021/06/08 02:46:33;;;;;;;14.82;8.30;;;16.90;58.00;;;;;;4960163;28;20029;-80
2021/06/08 02:49:00;;;;;;;13.82;8.73;;;16.80;58.60;;;;;;4959569;28;20027;-80
2021/06/08 02:51:27;;;;;;;13.30;8.50;;;16.80;58.80;;;;;;4961042;28;20541;-80
2021/06/08 02:53:56;;;;;;;15.35;8.55;;;16.80;58.70;;;;;;4960413;28;20031;-80
2021/06/08 02:56:22;;;;;;;12.02;8.00;;;16.70;58.50;;;;;;4960736;28;20024;-80
2021/06/08 02:58:49;;;;;;;14.00;8.05;;;16.70;57.90;;;;;;4961060;28;20038;-80
2021/06/08 03:01:17;;;;;;;13.70;8.30;;;16.70;59.00;;;;;;4960639;28;20042;-80
2021/06/08 03:03:46;;;;;;;12.93;8.15;;;16.70;58.40;;;;;;4961009;28;20035;-80
2021/06/08 03:06:18;;;;;;;12.88;8.95;;;16.70;60.90;;;;;;4959262;28;20049;-80
2021/06/08 03:08:59;;;;;;;15.75;9.02;;;16.60;59.30;;;;;;4958518;29;20023;-80
2021/06/08 03:11:49;;;;;;;11.85;7.85;;;16.70;59.80;;;;;;4960565;28;20074;-80
2021/06/08 03:14:16;;;;;;;14.90;9.40;;;16.60;60.70;;;;;;4959219;28;20089;-80
2021/06/08 03:16:51;;;;;;;16.70;8.85;;;16.60;60.40;;;;;;4954679;29;20024;-80
2021/06/08 03:19:20;;;;;;;16.77;9.43;;;16.50;61.00;;;;;;4960418;28;20082;-80
2021/06/08 03:21:50;;;;;;;12.75;8.65;;;16.50;60.80;;;;;;4958971;29;20143;-80
2021/06/08 03:24:19;;;;;;;14.50;9.05;;;16.50;60.60;;;;;;4959880;28;20035;-82
2021/06/08 03:26:46;;;;;;;14.68;10.18;;;16.50;61.60;;;;;;4960155;28;20031;-82
2021/06/08 03:29:14;;;;;;;15.45;9.95;;;16.40;61.90;;;;;;4960195;28;20034;-82
2021/06/08 03:31:44;;;;;;;17.75;9.90;;;16.40;62.60;;;;;;4958650;29;20510;-82
2021/06/08 03:34:14;;;;;;;15.35;9.60;;;16.40;61.50;;;;;;4958072;29;20389;-82
2021/06/08 03:36:49;;;;;;;12.95;9.30;;;16.40;62.20;;;;;;4958660;29;20082;-82
2021/06/08 03:39:16;;;;;;;13.38;9.23;;;16.40;62.20;;;;;;4952671;28;20027;-82
2021/06/08 03:41:44;;;;;;;14.98;9.02;;;16.40;60.60;;;;;;4960236;28;20054;-82
2021/06/08 03:44:13;;;;;;;14.57;9.52;;;16.30;60.80;;;;;;4959733;28;20015;-82
2021/06/08 03:46:39;;;;;;;17.05;9.98;;;16.30;60.80;;;;;;4960061;28;20027;-82
2021/06/08 03:49:06;;;;;;;16.48;9.50;;;16.30;62.30;;;;;;4947909;29;20043;-82
2021/06/08 03:51:32;;;;;;;15.73;10.55;;;16.20;60.70;;;;;;4959745;29;20038;-82
2021/06/08 03:54:01;;;;;;;17.35;9.75;;;16.20;61.60;;;;;;4959468;28;20054;-82
2021/06/08 03:56:29;;;;;;;14.35;9.05;;;16.20;61.40;;;;;;4959967;28;20038;-82
2021/06/08 03:58:55;;;;;;;16.92;10.05;;;16.20;60.90;;;;;;4959526;28;20371;-82
2021/06/08 04:01:22;;;;;;;19.05;11.35;;;16.20;61.50;;;;;;4959381;29;20031;-81
2021/06/08 04:03:52;;;;;;;18.98;11.60;;;16.10;63.20;;;;;;4959446;28;20033;-82
2021/06/08 04:06:21;;;;;;;21.35;11.32;;;16.10;63.60;;;;;;4959597;28;20039;-82
2021/06/08 04:08:47;;;;;;;17.20;11.38;;;16.10;64.10;;;;;;4957854;29;20094;-82
2021/06/08 04:11:17;;;;;;;18.73;12.18;;;16.10;62.70;;;;;;4959610;28;20038;-81
2021/06/08 04:13:44;;;;;;;17.15;11.23;;;16.10;63.40;;;;;;4960002;28;20019;-81
2021/06/08 04:16:11;;;;;;;19.90;12.40;;;16.10;62.60;;;;;;4959008;29;20441;-82
2021/06/08 04:18:38;;;;;;;17.58;10.98;;;16.10;63.20;;;;;;4958079;29;20038;-82
2021/06/08 04:21:05;;;;;;;19.77;12.18;;;16.10;63.50;;;;;;4955933;29;20038;-82
2021/06/08 04:23:31;;;;;;;18.45;11.55;;;16.10;63.50;;;;;;4948722;29;20505;-82
2021/06/08 04:25:58;;;;;;;18.33;10.93;;;16.00;64.00;;;;;;4957574;29;20553;-82
2021/06/08 04:28:26;;;;;;;17.52;11.70;;;16.00;63.10;;;;;;4950437;29;20090;-82
2021/06/08 04:30:53;;;;;;;15.55;10.38;;;16.00;63.20;;;;;;4944160;29;20034;-82
2021/06/08 04:33:26;;;;;;;16.35;11.13;;;16.00;62.90;;;;;;4950209;28;20099;-83
2021/06/08 04:35:52;;;;;;;14.30;9.93;;;16.00;63.20;;;;;;4956423;29;20038;-82
2021/06/08 04:38:19;;;;;;;13.93;9.30;;;16.00;62.50;;;;;;4958271;28;20031;-82
2021/06/08 04:40:47;;;;;;;12.88;8.95;;;16.00;63.90;;;;;;4959130;28;20078;-82
2021/06/08 04:43:14;;;;;;;12.13;8.73;;;16.00;62.60;;;;;;4959397;28;20034;-82
2021/06/08 04:45:40;;;;;;;12.00;8.77;;;16.00;62.30;;;;;;4957698;29;20035;-82
2021/06/08 04:48:06;;;;;;;13.80;9.15;;;16.00;61.80;;;;;;4959210;28;20385;-82
2021/06/08 04:50:32;;;;;;;13.32;9.07;;;16.00;63.90;;;;;;4957733;28;20031;-82
2021/06/08 04:53:03;;;;;;;11.95;8.65;;;16.00;62.60;;;;;;4958458;28;20051;-82
2021/06/08 04:55:29;;;;;;;15.45;9.07;;;16.00;63.90;;;;;;4958994;28;20039;-82
2021/06/08 04:57:55;;;;;;;13.35;9.05;;;16.00;64.40;;;;;;4959380;28;20023;-82
2021/06/08 05:00:50;;;;;;;12.93;8.23;;;16.00;64.20;;;;;;4958712;28;20046;-82
2021/06/08 05:03:22;;;;;;;13.20;9.23;;;15.90;64.50;;;;;;4959155;28;20059;-82
2021/06/08 05:05:55;;;;;;;13.43;9.13;;;16.00;64.70;;;;;;4957592;28;20043;-82
2021/06/08 05:08:28;;;;;;;11.65;8.45;;;16.00;63.90;;;;;;4957499;28;20023;-82
2021/06/08 05:11:00;;;;;;;12.23;8.95;;;16.00;64.40;;;;;;4959025;28;20039;-80
2021/06/08 05:13:27;;;;;;;11.93;8.63;;;15.90;64.50;;;;;;4958631;28;20386;-81
2021/06/08 05:15:55;;;;;;;11.80;8.32;;;16.00;64.70;;;;;;4958868;28;20042;-83
2021/06/08 05:18:22;;;;;;;10.80;7.85;;;16.00;65.00;;;;;;4957035;29;20511;-82
2021/06/08 05:20:49;;;;;;;13.32;8.48;;;15.90;64.30;;;;;;4958983;28;20031;-81
2021/06/08 05:23:16;;;;;;;11.18;7.95;;;15.90;66.00;;;;;;4951339;29;20422;-77
2021/06/08 05:25:44;;;;;;;11.27;7.70;;;15.90;63.70;;;;;;4957980;28;20027;-81
2021/06/08 05:28:14;;;;;;;10.52;7.70;;;15.90;65.10;;;;;;4956596;29;20027;-77
2021/06/08 05:30:41;;;;;;;10.30;7.32;;;15.90;64.20;;;;;;4957265;29;20043;-78
2021/06/08 05:33:10;;;;;;;9.45;7.07;;;16.00;63.10;;;;;;4956526;29;20031;-81
2021/06/08 05:35:36;;;;;;;11.73;7.68;;;16.00;62.60;;;;;;4957364;29;20039;-87
2021/06/08 05:38:06;;;;;;;11.68;8.23;;;16.10;64.20;;;;;;4956044;28;20507;-79
2021/06/08 05:40:33;;;;;;;11.20;8.40;;;16.10;63.70;;;;;;4958449;28;20086;-81
2021/06/08 05:42:59;;;;;;;11.75;8.18;;;16.20;63.70;;;;;;4958868;28;20106;-79
2021/06/08 05:45:29;;;;;;;11.15;8.05;;;16.20;63.10;;;;;;4958859;28;20055;-75
2021/06/08 05:47:55;;;;;;;12.43;8.85;;;16.30;63.00;;;;;;4957109;29;20359;-78
2021/06/08 05:50:21;;;;;;;13.55;9.07;;;16.30;63.40;;;;;;4959759;28;20023;-80
2021/06/08 05:52:47;;;;;;;11.57;8.75;;;16.40;64.40;;;;;;4959943;29;20078;-78
2021/06/08 05:55:15;;;;;;;12.45;9.35;;;16.40;64.70;;;;;;4961812;28;20031;-79
2021/06/08 05:57:45;;;;;;;12.80;9.05;;;16.50;64.10;;;;;;4961305;28;20035;-80
2021/06/08 06:00:12;;;;;;;10.88;8.15;;;16.60;64.60;;;;;;4957055;29;20063;-82
2021/06/08 06:02:38;;;;;;;10.30;7.50;;;16.60;63.50;;;;;;4954928;29;20023;-79
2021/06/08 06:05:06;;;;;;;10.85;7.90;;;16.60;63.30;;;;;;4960403;28;20083;-81
2021/06/08 06:07:33;;;;;;;11.25;8.10;;;16.70;63.30;;;;;;4961357;28;20047;-82
2021/06/08 06:10:00;;;;;;;11.48;8.40;;;16.80;63.90;;;;;;4961277;29;20039;-82
2021/06/08 06:12:26;;;;;;;18.30;12.98;;;16.90;63.40;;;;;;4960586;29;20118;-82
2021/06/08 06:15:01;;;;;;;15.18;11.80;;;16.90;65.20;;;;;;4961149;29;20031;-81
2021/06/08 06:17:32;;;;;;;11.75;9.07;;;17.00;64.60;;;;;;4949248;29;20035;-82
2021/06/08 06:19:58;;;;;;;12.45;8.70;;;17.00;64.40;;;;;;4961625;28;20031;-81
2021/06/08 06:22:24;;;;;;;11.70;7.95;;;17.10;65.50;;;;;;4960329;28;20398;-81
2021/06/08 06:24:50;;;;;;;12.15;8.88;;;17.20;65.00;;;;;;4959072;29;20038;-82
2021/06/08 06:27:16;;;;;;;12.20;8.95;;;17.20;65.00;;;;;;4951293;29;20026;-81
2021/06/08 06:29:42;;;;;;;11.55;8.40;;;17.30;64.90;;;;;;4936153;29;20042;-78
2021/06/08 06:32:08;;;;;;;10.73;7.95;;;17.30;65.90;;;;;;4950098;28;20043;-83
2021/06/08 06:34:34;;;;;;;11.27;8.30;;;17.30;66.00;;;;;;4961374;28;20032;-84
2021/06/08 06:37:02;;;;;;;12.38;9.23;;;17.30;65.70;;;;;;4959970;28;20027;-83
2021/06/08 06:39:30;;;;;;;13.63;8.52;;;17.30;65.50;;;;;;4954214;29;20426;-83
2021/06/08 06:42:02;;;;;;;10.48;8.10;;;17.30;65.50;;;;;;4955902;29;20027;-84
2021/06/08 06:44:28;;;;;;;11.60;8.02;;;17.30;65.10;;;;;;4955518;28;20448;-83
2021/06/08 06:46:55;;;;;;;8.15;5.90;;;17.30;66.40;;;;;;4957338;29;20101;-84
2021/06/08 06:49:21;;;;;;;10.05;5.97;;;17.40;66.00;;;;;;4960451;28;20429;-84
2021/06/08 06:51:48;;;;;;;7.20;5.55;;;17.50;65.00;;;;;;4960333;28;20024;-83
2021/06/08 06:54:14;;;;;;;8.68;5.60;;;17.60;64.60;;;;;;4960839;28;20081;-84
2021/06/08 06:56:41;;;;;;;7.32;5.35;;;17.80;64.60;;;;;;4959918;29;20023;-84
2021/06/08 06:59:07;;;;;;;7.38;5.50;;;18.10;65.00;;;;;;4960697;29;20101;-83
2021/06/08 07:01:34;;;;;;;9.13;6.50;;;18.40;66.00;;;;;;4958667;28;20562;-82
2021/06/08 07:04:01;;;;;;;8.00;6.50;;;18.80;65.50;;;;;;4959169;29;20035;-83
2021/06/08 07:06:28;;;;;;;7.38;5.43;;;19.00;65.40;;;;;;4960956;28;20023;-83
2021/06/08 07:08:56;;;;;;;7.60;5.97;;;19.20;64.90;;;;;;4955102;28;20027;-84
2021/06/08 07:11:23;;;;;;;9.00;6.90;;;19.40;64.50;;;;;;4947711;28;20107;-81
2021/06/08 07:13:49;;;;;;;8.55;6.38;;;19.70;65.40;;;;;;4942160;29;20059;-81
2021/06/08 07:16:16;;;;;;;6.72;5.57;;;20.00;64.90;;;;;;4947336;28;20024;-80
2021/06/08 07:18:46;;;;;;;8.52;5.78;;;20.20;64.10;;;;;;4951810;29;20372;-80
2021/06/08 07:21:14;;;;;;;8.05;6.30;;;20.40;64.70;;;;;;4948791;29;20060;-80
2021/06/08 07:23:41;;;;;;;8.02;5.85;;;20.80;65.70;;;;;;4942026;29;20040;-80
2021/06/08 07:26:07;;;;;;;7.13;5.85;;;21.30;65.80;;;;;;4941231;29;20028;-80
2021/06/08 07:28:34;;;;;;;7.72;5.72;;;21.70;66.00;;;;;;4953954;29;20050;-80
2021/06/08 07:31:00;;;;;;;6.72;4.88;;;22.20;66.50;;;;;;4959420;28;20041;-80
2021/06/08 07:33:51;;;;;;;6.68;5.13;;;22.80;65.40;;;;;;4960429;28;20410;-80
2021/06/08 07:36:34;;;;;;;6.25;4.90;;;23.30;62.80;;;;;;4959108;29;20036;-81
2021/06/08 07:39:13;;;;;;;7.03;5.30;;;23.80;62.90;;;;;;4952920;28;20401;-80
2021/06/08 07:41:45;;;;;;;6.90;4.28;;;24.30;63.00;;;;;;4959243;29;20035;-80
2021/06/08 07:44:25;;;;;;;7.70;4.97;;;24.70;62.70;;;;;;4959169;29;20081;-81
2021/06/08 07:46:53;;;;;;;6.22;4.15;;;25.20;63.20;;;;;;4958393;29;20059;-81
2021/06/08 07:49:21;;;;;;;5.78;4.28;;;25.60;60.70;;;;;;4959279;28;20051;-81
2021/06/08 07:51:49;;;;;;;5.70;4.35;;;25.90;61.20;;;;;;4959565;28;20448;-81
2021/06/08 07:54:16;;;;;;;4.72;4.03;;;26.20;60.10;;;;;;4959007;29;20094;-81
2021/06/08 07:56:42;;;;;;;5.68;4.20;;;26.60;59.70;;;;;;4959866;28;20019;-82
2021/06/08 07:59:13;;;;;;;8.63;6.78;;;26.90;59.60;;;;;;4957307;28;20039;-77
2021/06/08 08:01:40;;;;;;;8.50;7.35;;;27.30;59.30;;;;;;4959685;28;20030;-81
2021/06/08 08:04:09;;;;;;;4.70;3.83;;;27.60;59.10;;;;;;4960188;28;20051;-81
2021/06/08 08:06:35;;;;;;;5.20;3.70;;;27.90;57.90;;;;;;4959326;28;20042;-83
2021/06/08 08:09:03;;;;;;;6.03;3.75;;;28.20;57.90;;;;;;4959492;28;20038;-84
2021/06/08 08:11:31;;;;;;;4.45;3.17;;;28.50;58.00;;;;;;4958699;28;20023;-86
2021/06/08 08:13:58;;;;;;;4.43;3.42;;;28.80;56.90;;;;;;4959106;28;20054;-83
2021/06/08 08:16:25;;;;;;;5.28;3.63;;;29.10;54.20;;;;;;4959342;28;20023;-84
2021/06/08 08:18:52;;;;;;;4.95;3.65;;;29.30;55.90;;;;;;4958367;29;20051;-84
2021/06/08 08:21:20;;;;;;;4.95;3.50;;;29.60;56.10;;;;;;4959226;28;20074;-85
2021/06/08 08:23:47;;;;;;;7.45;3.70;;;29.90;54.90;;;;;;4958933;28;20035;-80
2021/06/08 08:26:13;;;;;;;5.15;4.07;;;30.20;55.50;;;;;;4958328;28;20055;-82
2021/06/08 08:28:44;;;;;;;5.90;3.70;;;30.50;54.30;;;;;;4956002;28;20035;-81
2021/06/08 08:31:16;;;;;;;5.87;3.63;;;30.70;53.00;;;;;;4964371;28;20023;-81
2021/06/08 08:33:43;;;;;;;6.10;4.15;;;31.00;52.80;;;;;;4958407;28;20772;-80
2021/06/08 08:36:09;;;;;;;5.53;3.85;;;31.30;52.70;;;;;;4958961;28;20035;-80
2021/06/08 08:38:35;;;;;;;5.93;3.75;;;31.50;51.80;;;;;;4953387;28;20019;-80
2021/06/08 08:41:03;;;;;;;4.50;3.38;;;31.80;51.40;;;;;;4958569;28;20058;-80
2021/06/08 08:43:29;;;;;;;6.60;3.95;;;32.10;51.70;;;;;;4958830;29;20027;-81
2021/06/08 08:45:56;;;;;;;5.05;3.85;;;32.40;50.40;;;;;;4958247;28;20024;-81
2021/06/08 08:48:22;;;;;;;5.13;3.38;;;32.60;49.00;;;;;;4957578;28;20034;-84
2021/06/08 08:50:49;;;;;;;5.57;3.28;;;32.90;49.00;;;;;;4958767;29;20086;-83
2021/06/08 08:53:18;;;;;;;5.28;3.30;;;33.10;50.40;;;;;;4958131;28;20070;-83
2021/06/08 08:55:46;;;;;;;5.07;3.58;;;33.30;50.00;;;;;;4958419;28;20102;-81
2021/06/08 08:58:16;;;;;;;4.88;3.90;;;33.50;49.40;;;;;;4958725;28;20057;-82
2021/06/08 09:00:43;;;;;;;6.57;3.85;;;33.80;49.80;;;;;;4945239;29;20015;-82
2021/06/08 09:03:13;;;;;;;5.25;3.50;;;34.10;48.50;;;;;;4953812;29;20039;-81
2021/06/08 09:05:39;;;;;;;5.63;3.28;;;34.30;48.60;;;;;;4957871;29;20060;-81
2021/06/08 09:08:07;;;;;;;5.80;3.63;;;34.60;48.80;;;;;;4958036;28;20106;-82
2021/06/08 09:10:38;;;;;;;5.57;3.47;;;34.80;47.70;;;;;;4957512;29;20112;-81
2021/06/08 09:13:04;;;;;;;6.43;3.40;;;35.10;47.20;;;;;;4957623;28;20517;-81
2021/06/08 09:15:30;;;;;;;5.38;3.70;;;35.40;47.80;;;;;;4958474;29;20039;-82
2021/06/08 09:17:58;;;;;;;6.45;3.67;;;35.60;48.30;;;;;;4957162;29;20024;-81
2021/06/08 09:20:24;;;;;;;5.60;3.30;;;35.80;47.70;;;;;;4958404;28;20098;-84
2021/06/08 09:23:02;;;;;;;4.32;2.92;;;36.10;47.10;;;;;;4957509;28;20538;-85
2021/06/08 09:25:37;;;;;;;5.88;3.38;;;36.40;47.40;;;;;;4960743;28;20043;-84
2021/06/08 09:28:30;;;;;;;5.25;3.78;;;36.70;45.30;;;;;;4953773;28;20410;-78
2021/06/08 09:31:22;;;;;;;7.05;4.40;;;36.90;46.20;;;;;;4943005;29;20083;-83
2021/06/08 09:33:50;;;;;;;7.03;4.15;;;37.10;43.40;;;;;;4953881;29;20495;-83
2021/06/08 09:36:21;;;;;;;5.18;3.53;;;37.30;44.30;;;;;;4956765;28;20035;-81
2021/06/08 09:38:51;;;;;;;9.30;7.47;;;37.40;45.10;;;;;;4957591;28;20035;-79
2021/06/08 09:41:23;;;;;;;4.53;3.33;;;37.70;44.30;;;;;;4959052;29;20094;-82
2021/06/08 09:44:02;;;;;;;9.98;5.43;;;37.90;45.10;;;;;;4959575;29;20032;-87
2021/06/08 09:46:32;;;;;;;6.88;4.63;;;38.20;44.00;;;;;;4962153;28;20552;-86
2021/06/08 09:49:01;;;;;;;7.03;4.43;;;38.40;43.70;;;;;;4955610;28;20035;-86
2021/06/08 09:51:55;;;;;;;5.25;3.22;;;38.60;43.90;;;;;;4961852;28;20067;-77
2021/06/08 09:54:30;;;;;;;6.38;3.22;;;39.00;43.70;;;;;;4961923;28;20110;-86
2021/06/08 09:57:14;;;;;;;4.97;3.08;;;39.20;43.70;;;;;;4961180;28;20072;-84
2021/06/08 10:00:00;;;;;;;4.30;2.90;;;39.50;42.70;;;;;;4955582;29;20058;-85
2021/06/08 10:02:45;;;;;;;4.50;2.40;;;39.70;41.90;;;;;;4954952;28;20454;-83
2021/06/08 10:05:29;;;;;;;5.18;2.40;;;39.90;41.30;;;;;;4952417;29;20031;-87
2021/06/08 10:08:01;;;;;;;6.57;2.13;;;40.30;39.60;;;;;;4960941;29;20062;-83
2021/06/08 10:10:41;;;;;;;5.55;2.55;;;40.40;39.90;;;;;;4963783;28;20041;-82
2021/06/08 10:13:12;;;;;;;5.85;2.10;;;40.50;39.20;;;;;;4953193;28;20035;-83
2021/06/08 10:16:07;;;;;;;5.63;2.83;;;40.70;38.60;;;;;;4956264;29;20035;-84
2021/06/08 10:18:45;;;;;;;5.85;2.53;;;40.90;40.00;;;;;;4957110;28;20083;-84
2021/06/08 10:21:11;;;;;;;5.60;2.72;;;41.10;38.10;;;;;;4959935;29;20031;-84
2021/06/08 10:23:38;;;;;;;4.68;2.50;;;41.30;37.20;;;;;;4959961;28;20027;-80
2021/06/08 10:26:14;;;;;;;4.40;2.25;;;41.40;37.80;;;;;;4960154;28;20027;-87
2021/06/08 10:28:40;;;;;;;3.83;2.10;;;41.60;38.80;;;;;;4958630;29;20031;-82
2021/06/08 10:31:06;;;;;;;4.60;2.50;;;41.80;38.00;;;;;;4960303;28;20063;-81
2021/06/08 10:33:33;;;;;;;4.43;2.13;;;41.90;37.70;;;;;;4959990;28;20031;-81
2021/06/08 10:35:59;;;;;;;5.90;2.30;;;42.00;37.60;;;;;;4959166;28;20042;-81
2021/06/08 10:38:26;;;;;;;5.55;2.40;;;42.20;38.30;;;;;;4953441;28;20027;-80
2021/06/08 10:40:57;;;;;;;4.75;2.22;;;42.40;36.80;;;;;;4954969;28;20058;-78
2021/06/08 10:43:28;;;;;;;5.07;2.30;;;42.40;35.80;;;;;;4960200;29;20406;-77
2021/06/08 10:45:56;;;;;;;3.72;2.35;;;42.40;36.80;;;;;;4959937;28;20035;-79
2021/06/08 10:48:37;;;;;;;6.30;2.63;;;42.30;37.10;;;;;;4956636;28;20032;-80
2021/06/08 10:51:16;;;;;;;3.83;2.00;;;42.30;35.80;;;;;;4960003;29;20479;-79
2021/06/08 10:53:47;;;;;;;3.92;2.10;;;42.30;36.10;;;;;;4960116;28;20023;-79
2021/06/08 10:56:28;;;;;;;4.90;2.53;;;42.20;35.60;;;;;;4960888;28;20094;-79
2021/06/08 10:59:09;;;;;;;5.78;2.65;;;41.80;35.80;;;;;;4961189;28;20016;-79
2021/06/08 11:01:42;;;;;;;5.47;2.65;;;40.90;35.10;;;;;;4961036;28;20083;-79
2021/06/08 11:04:13;;;;;;;5.22;2.88;;;40.20;37.10;;;;;;4961187;28;20060;-79
2021/06/08 11:06:53;;;;;;;3.95;2.38;;;39.80;36.10;;;;;;4960686;28;20031;-79
2021/06/08 11:09:40;;;;;;;4.63;2.50;;;39.20;36.20;;;;;;4960778;28;20030;-79
2021/06/08 11:12:09;;;;;;;5.45;2.78;;;38.50;36.30;;;;;;4960790;28;20056;-78
2021/06/08 11:14:38;;;;;;;6.45;2.63;;;38.00;37.70;;;;;;4960667;28;20074;-78
2021/06/08 11:17:06;;;;;;;4.75;2.60;;;37.90;38.50;;;;;;4960817;28;20114;-78
2021/06/08 11:19:41;;;;;;;4.78;2.58;;;38.10;38.10;;;;;;4960512;28;20024;-78
2021/06/08 11:22:08;;;;;;;6.32;2.53;;;37.80;37.60;;;;;;4960348;28;20095;-79
2021/06/08 11:24:38;;;;;;;3.53;2.22;;;37.90;38.10;;;;;;4960358;28;20487;-84
2021/06/08 11:27:05;;;;;;;7.45;2.40;;;38.30;38.80;;;;;;4960520;28;20031;-84
2021/06/08 11:29:57;;;;;;;6.55;2.70;;;38.70;38.60;;;;;;4960649;28;20035;-84
2021/06/08 11:32:29;;;;;;;6.15;2.58;;;39.20;37.10;;;;;;4960349;29;20621;-84
2021/06/08 11:35:19;;;;;;;4.97;2.47;;;39.50;37.60;;;;;;4960389;28;20470;-85
2021/06/08 11:37:45;;;;;;;4.68;2.28;;;39.70;38.10;;;;;;4950533;29;20106;-83
2021/06/08 11:40:38;;;;;;;6.80;2.65;;;39.80;37.40;;;;;;4957011;28;20079;-83
2021/06/08 11:43:05;;;;;;;4.43;2.30;;;39.70;37.40;;;;;;4960176;28;20027;-84
2021/06/08 11:45:33;;;;;;;4.63;2.40;;;39.60;37.20;;;;;;4957896;29;20099;-83
2021/06/08 11:47:59;;;;;;;6.00;2.47;;;39.30;37.70;;;;;;4950026;29;20023;-84
2021/06/08 11:50:44;;;;;;;7.47;2.80;;;39.00;37.00;;;;;;4957271;28;20030;-83
2021/06/08 11:53:13;;;;;;;6.90;2.35;;;38.40;35.60;;;;;;4960057;28;20023;-84
2021/06/08 11:55:40;;;;;;;5.28;2.03;;;37.80;36.70;;;;;;4959757;28;20040;-84
2021/06/08 11:58:35;;;;;;;3.92;2.20;;;37.40;36.60;;;;;;4960116;28;20509;-84
2021/06/08 12:01:04;;;;;;;5.53;2.05;;;36.80;35.30;;;;;;4950555;29;20042;-84
2021/06/08 12:03:32;;;;;;;5.45;2.25;;;36.20;35.80;;;;;;4959875;28;20401;-84
2021/06/08 12:06:00;;;;;;;4.50;2.25;;;35.70;36.50;;;;;;4959915;28;20098;-84
2021/06/08 12:08:30;;;;;;;4.10;1.80;;;35.40;37.50;;;;;;4959566;28;20454;-83
2021/06/08 12:10:57;;;;;;;4.82;1.90;;;35.00;36.80;;;;;;4958714;29;20023;-84
2021/06/08 12:13:31;;;;;;;4.90;2.38;;;34.70;37.40;;;;;;4945772;29;20023;-85
2021/06/08 12:15:57;;;;;;;5.68;1.85;;;34.40;37.80;;;;;;4960090;28;20037;-84
2021/06/08 12:18:32;;;;;;;4.93;2.05;;;34.10;37.60;;;;;;4959583;28;20030;-83
2021/06/08 12:20:58;;;;;;;4.18;1.90;;;33.80;38.00;;;;;;4958107;29;20394;-84
2021/06/08 12:23:42;;;;;;;4.25;2.10;;;33.60;39.10;;;;;;4959406;28;20084;-85
2021/06/08 12:26:12;;;;;;;4.05;1.80;;;33.40;38.00;;;;;;4959515;28;20486;-83
2021/06/08 12:28:40;;;;;;;3.60;1.50;;;33.20;37.90;;;;;;4959451;29;20398;-83
2021/06/08 12:31:14;;;;;;;5.50;2.45;;;33.00;37.90;;;;;;4959377;28;20098;-84
2021/06/08 12:33:41;;;;;;;3.97;1.88;;;32.70;37.60;;;;;;4959657;28;20038;-84
2021/06/08 12:36:08;;;;;;;3.22;1.63;;;32.50;38.70;;;;;;4959184;28;20031;-83
2021/06/08 12:38:34;;;;;;;4.43;1.85;;;32.30;38.90;;;;;;4952424;28;20039;-83
2021/06/08 12:41:04;;;;;;;3.65;2.00;;;32.10;39.80;;;;;;4958425;29;20126;-83
2021/06/08 12:43:48;;;;;;;3.65;1.85;;;32.10;40.20;;;;;;4959340;28;20504;-83
2021/06/08 12:46:31;;;;;;;3.67;1.83;;;32.10;39.50;;;;;;4940873;29;20107;-83
2021/06/08 12:49:05;;;;;;;5.22;2.08;;;32.10;38.90;;;;;;4954142;29;20043;-83
2021/06/08 12:51:36;;;;;;;5.65;2.10;;;32.00;38.80;;;;;;4959035;28;20109;-84
2021/06/08 12:54:05;;;;;;;7.20;2.20;;;31.90;38.40;;;;;;4952066;29;20057;-84
2021/06/08 12:56:32;;;;;;;5.32;2.03;;;31.80;37.80;;;;;;4952818;29;20027;-84